Aérodrome :
LOGIN :

S'inscrire | Disclaimer

   EN    FR    IT 

 










Légende :    VFR   VFR Marginal   IFR   IFR Intensif   IFR Très Intensif
Visi : 
Plafond : 
>= 8 km
>= 3000ft
5 à 8 km
1000 à 3000 ft
1500m à 5 km
500 à 1000 ft
800 à 1500m
200 à 500 ft
< 800m
< 200 ft
Symboles :   Orages  Brouillard  Fortes neiges  Fortes précipitations  Vent > 20 kt
SIGMETs :   Divers  Orages  Givrage  Turbulence  Onde Orograph.  Cendres Volcan.







- Altitude de l'aérodrome : 202 ft
- Code IATA : LGW
- Voir les cartes d'approche


EGKK - London Gatwick

DERNIER METAR :
  • 202020Z 36006KT 320V030 9000 BKN006 03/03 Q1006

METARs EXPIRÉS :
  • 201950Z 02006KT 340V050 9999 BKN007 03/03 Q1005
  • 201920Z 02009KT 350V050 9999 BKN006 04/03 Q1004
  • 201850Z 36007KT 320V030 9999 BKN005 04/03 Q1003
  • 201820Z 03006KT 340V050 9999 BKN006 04/04 Q1002

TAF AMD TAF EGKK
Valide du 20 à 19h jusqu'au 22 à 00h UTC


201907Z 2019/2124 02006KT 9999 BKN010
TEMPO 2019/2024 BKN006
PROB30
TEMPO 2019/2024 3000 -DZ BR BKN004
BECMG 2021/2024 SCT006
TEMPO 2100/2107 3000 BR BKN006
BECMG 2107/2110 14010KT 7000 -RA BKN010
TEMPO 2109/2121 4000 -RADZ BR BKN006
PROB40
TEMPO 2110/2118 RADZ BKN004
BECMG 2116/2119 23010KT
TEMPO 2121/2124 BKN008
Pas de NOTAMs connus pour ce terrain.



MET'MAP, la Météo Aéronautique d'un coup d'oeil ! - Copyright ORBIFLY Décembre 2007 - Disclaimer

ORBIFLY MET'MAP TEAM :

Programmation & Développement : Alexandra Zaïnal
Conception & Développement : Baudouin d'Aumeries
Co-Programmation & Développement : Marc-Olivier Méhu
Soutien technique & logistique : Manuel Goepfert

Contact : metmap@orbifly.com




SOURCES & CREDITS :

   NOAA